VIR2097 LFPO-EICK
Flight info
| Callsign | VIR2097 |
|---|---|
| Flight time | 1h 18m |
| Altitude | 40000 |
| Route | LGL UN491 UPALO UN862 SKESO DCT SKERY DCT EMWIP DCT GISOK DCT ELTIG ELTIG1R |
| Aircraft | A339/H-SADE1E2E3GHIJ3J5M1P2RWXY/LB2D1 |
Departure
| Time | 2026-05-01 12:40 |
|---|---|
| Airport | Paris-Orly Airport (LFPO) |
Arrival
| Time | 2026-05-01 13:58 |
|---|---|
| Airport | Cork International Airport (EICK) |
| Time | Latitude | Longitude | Altitude | Speed | Heading |
|---|---|---|---|---|---|
| 2026-05-01 12:13 | 48.72931 | 2.37595 | 289 ft | 0 kts | 310° |
| 2026-05-01 12:29 | 48.72903 | 2.37646 | 292 ft | 4 kts | 311° |
| 2026-05-01 12:30 | 48.72868 | 2.37708 | 291 ft | 4 kts | 306° |
| 2026-05-01 12:30 | 48.72853 | 2.37740 | 292 ft | 4 kts | 303° |
| 2026-05-01 12:30 | 48.72842 | 2.37764 | 292 ft | 4 kts | 335° |
| 2026-05-01 12:31 | 48.72822 | 2.37775 | 291 ft | 4 kts | 17° |
| 2026-05-01 12:31 | 48.72801 | 2.37764 | 290 ft | 0 kts | 18° |
| 2026-05-01 12:34 | 48.72810 | 2.37768 | 292 ft | 3 kts | 18° |
| 2026-05-01 12:34 | 48.72837 | 2.37782 | 294 ft | 5 kts | 18° |
| 2026-05-01 12:34 | 48.72885 | 2.37805 | 295 ft | 8 kts | 18° |
| 2026-05-01 12:34 | 48.72947 | 2.37836 | 292 ft | 10 kts | 18° |
| 2026-05-01 12:35 | 48.73022 | 2.37874 | 295 ft | 12 kts | 18° |
| 2026-05-01 12:35 | 48.73110 | 2.37917 | 294 ft | 14 kts | 18° |
| 2026-05-01 12:35 | 48.73208 | 2.37966 | 294 ft | 16 kts | 18° |
| 2026-05-01 12:35 | 48.73316 | 2.38019 | 296 ft | 17 kts | 18° |
| 2026-05-01 12:36 | 48.73434 | 2.38080 | 292 ft | 19 kts | 19° |
| 2026-05-01 12:36 | 48.73562 | 2.38147 | 295 ft | 20 kts | 18° |
| 2026-05-01 12:36 | 48.73686 | 2.38210 | 292 ft | 6 kts | 20° |
| 2026-05-01 12:36 | 48.73720 | 2.38254 | 295 ft | 7 kts | 51° |
| 2026-05-01 12:37 | 48.73747 | 2.38334 | 295 ft | 10 kts | 65° |
| 2026-05-01 12:37 | 48.73778 | 2.38438 | 295 ft | 12 kts | 65° |
| 2026-05-01 12:37 | 48.73812 | 2.38563 | 294 ft | 13 kts | 82° |
| 2026-05-01 12:37 | 48.73767 | 2.38663 | 294 ft | 11 kts | 158° |
| 2026-05-01 12:38 | 48.73696 | 2.38644 | 296 ft | 7 kts | 198° |
| 2026-05-01 12:38 | 48.73694 | 2.38643 | 295 ft | 0 kts | 199° |
| 2026-05-01 12:40 | 48.73646 | 2.38617 | 298 ft | 31 kts | 200° |
| 2026-05-01 12:40 | 48.73357 | 2.38482 | 295 ft | 96 kts | 198° |
| 2026-05-01 12:40 | 48.72461 | 2.38028 | 382 ft | 165 kts | 198° |
| 2026-05-01 12:40 | 48.71328 | 2.37473 | 1103 ft | 181 kts | 197° |
| 2026-05-01 12:41 | 48.70075 | 2.36886 | 1979 ft | 191 kts | 196° |
| 2026-05-01 12:41 | 48.68834 | 2.36003 | 2643 ft | 208 kts | 219° |
| 2026-05-01 12:41 | 48.67969 | 2.34165 | 3137 ft | 229 kts | 247° |
| 2026-05-01 12:41 | 48.67607 | 2.31708 | 3562 ft | 252 kts | 263° |
| 2026-05-01 12:42 | 48.67535 | 2.29006 | 4161 ft | 262 kts | 268° |
| 2026-05-01 12:42 | 48.67539 | 2.26877 | 4719 ft | 265 kts | 269° |
| 2026-05-01 12:42 | 48.67539 | 2.25500 | 5073 ft | 268 kts | 268° |
| 2026-05-01 12:43 | 48.67530 | 2.23937 | 5502 ft | 268 kts | 267° |
| 2026-05-01 12:43 | 48.67483 | 2.21106 | 6257 ft | 272 kts | 266° |
| 2026-05-01 12:43 | 48.67406 | 2.18231 | 7017 ft | 275 kts | 265° |
| 2026-05-01 12:43 | 48.67315 | 2.15310 | 7735 ft | 280 kts | 264° |
| 2026-05-01 12:44 | 48.67215 | 2.12371 | 8420 ft | 285 kts | 264° |
| 2026-05-01 12:44 | 48.67110 | 2.09362 | 9246 ft | 288 kts | 264° |
| 2026-05-01 12:44 | 48.66898 | 2.03195 | 10658 ft | 302 kts | 264° |
| 2026-05-01 12:45 | 48.66653 | 1.96396 | 11139 ft | 343 kts | 264° |
| 2026-05-01 12:45 | 48.66574 | 1.94148 | 11475 ft | 347 kts | 264° |
| 2026-05-01 12:45 | 48.66558 | 1.90886 | 12061 ft | 352 kts | 271° |
| 2026-05-01 12:46 | 48.66904 | 1.87187 | 12701 ft | 359 kts | 280° |
| 2026-05-01 12:46 | 48.67619 | 1.83540 | 13354 ft | 364 kts | 285° |
| 2026-05-01 12:46 | 48.68408 | 1.79881 | 13985 ft | 368 kts | 285° |
| 2026-05-01 12:46 | 48.69189 | 1.76171 | 14544 ft | 372 kts | 285° |
| 2026-05-01 12:47 | 48.69969 | 1.72418 | 15117 ft | 376 kts | 285° |
| 2026-05-01 12:47 | 48.70454 | 1.70081 | 15499 ft | 378 kts | 284° |
| 2026-05-01 12:47 | 48.71169 | 1.66620 | 16046 ft | 382 kts | 284° |
| 2026-05-01 12:47 | 48.71962 | 1.62756 | 16579 ft | 386 kts | 284° |
| 2026-05-01 12:48 | 48.72751 | 1.58905 | 17120 ft | 390 kts | 284° |
| 2026-05-01 12:48 | 48.73566 | 1.54920 | 17666 ft | 394 kts | 284° |
| 2026-05-01 12:48 | 48.74364 | 1.50980 | 18212 ft | 397 kts | 283° |
| 2026-05-01 12:48 | 48.74925 | 1.46885 | 18731 ft | 398 kts | 274° |
| 2026-05-01 12:49 | 48.75142 | 1.42715 | 19246 ft | 398 kts | 270° |
| 2026-05-01 12:49 | 48.75324 | 1.38503 | 19740 ft | 402 kts | 270° |
| 2026-05-01 12:49 | 48.75520 | 1.34262 | 20266 ft | 405 kts | 270° |
| 2026-05-01 12:49 | 48.75723 | 1.29986 | 20792 ft | 408 kts | 271° |
| 2026-05-01 12:50 | 48.75923 | 1.25687 | 21309 ft | 411 kts | 271° |
| 2026-05-01 12:50 | 48.76124 | 1.21356 | 21822 ft | 414 kts | 271° |
| 2026-05-01 12:50 | 48.76326 | 1.16991 | 22331 ft | 417 kts | 271° |
| 2026-05-01 12:50 | 48.76527 | 1.12590 | 22843 ft | 421 kts | 271° |
| 2026-05-01 12:51 | 48.76728 | 1.08139 | 23362 ft | 424 kts | 271° |
| 2026-05-01 12:51 | 48.76928 | 1.03672 | 23870 ft | 428 kts | 271° |
| 2026-05-01 12:51 | 48.77328 | 0.94602 | 24785 ft | 433 kts | 270° |
| 2026-05-01 12:52 | 48.77527 | 0.90037 | 25237 ft | 436 kts | 270° |
| 2026-05-01 12:52 | 48.77920 | 0.80830 | 26251 ft | 439 kts | 271° |
| 2026-05-01 12:52 | 48.78116 | 0.76189 | 26695 ft | 443 kts | 270° |
| 2026-05-01 12:53 | 48.78505 | 0.66868 | 27596 ft | 449 kts | 270° |
| 2026-05-01 12:53 | 48.78700 | 0.62136 | 28020 ft | 451 kts | 270° |
| 2026-05-01 12:53 | 48.78894 | 0.57365 | 28434 ft | 454 kts | 270° |
| 2026-05-01 12:54 | 48.79087 | 0.52577 | 28838 ft | 457 kts | 270° |
| 2026-05-01 12:54 | 48.79652 | 0.42919 | 29602 ft | 463 kts | 273° |
| 2026-05-01 12:54 | 48.79982 | 0.38082 | 30215 ft | 461 kts | 274° |
| 2026-05-01 12:55 | 48.80621 | 0.28330 | 30875 ft | 466 kts | 273° |
| 2026-05-01 12:55 | 48.80930 | 0.23410 | 31236 ft | 469 kts | 274° |
| 2026-05-01 12:55 | 48.81234 | 0.18473 | 31605 ft | 471 kts | 274° |
| 2026-05-01 12:56 | 48.81535 | 0.13521 | 31955 ft | 473 kts | 274° |
| 2026-05-01 12:56 | 48.81836 | 0.08532 | 32290 ft | 475 kts | 274° |
| 2026-05-01 12:56 | 48.82135 | 0.03529 | 32620 ft | 477 kts | 274° |
| 2026-05-01 12:56 | 48.82432 | -0.01442 | 32899 ft | 479 kts | 274° |
| 2026-05-01 12:57 | 48.82726 | -0.06453 | 33412 ft | 474 kts | 274° |
| 2026-05-01 12:57 | 48.83310 | -0.16434 | 33860 ft | 475 kts | 274° |
| 2026-05-01 12:57 | 48.83598 | -0.21422 | 34126 ft | 474 kts | 274° |
| 2026-05-01 12:58 | 48.83885 | -0.26403 | 34379 ft | 473 kts | 274° |
| 2026-05-01 12:58 | 48.84159 | -0.31362 | 34631 ft | 471 kts | 274° |
| 2026-05-01 12:58 | 48.84423 | -0.36328 | 34811 ft | 471 kts | 274° |
| 2026-05-01 12:59 | 48.84946 | -0.46239 | 35229 ft | 470 kts | 274° |
| 2026-05-01 12:59 | 48.85203 | -0.51133 | 35439 ft | 469 kts | 274° |
| 2026-05-01 12:59 | 48.85714 | -0.61009 | 35853 ft | 469 kts | 274° |
| 2026-05-01 13:00 | 48.86218 | -0.70880 | 36277 ft | 467 kts | 274° |
| 2026-05-01 13:00 | 48.86467 | -0.75795 | 36510 ft | 466 kts | 273° |
| 2026-05-01 13:01 | 48.86954 | -0.85612 | 36868 ft | 466 kts | 273° |
| 2026-05-01 13:01 | 48.87194 | -0.90515 | 37092 ft | 465 kts | 273° |
| 2026-05-01 13:01 | 48.87668 | -1.00277 | 37557 ft | 462 kts | 273° |
| 2026-05-01 13:02 | 48.87902 | -1.05159 | 37726 ft | 463 kts | 273° |
| 2026-05-01 13:07 | 49.07617 | -1.97918 | 40212 ft | 473 kts | 316° |
| 2026-05-01 13:07 | 49.10028 | -2.01241 | 40204 ft | 474 kts | 316° |
| 2026-05-01 13:08 | 49.14919 | -2.08002 | 40199 ft | 473 kts | 316° |
| 2026-05-01 13:08 | 49.19794 | -2.14761 | 40216 ft | 473 kts | 316° |
| 2026-05-01 13:09 | 49.24670 | -2.21539 | 40237 ft | 473 kts | 316° |
| 2026-05-01 13:09 | 49.29549 | -2.28335 | 40215 ft | 474 kts | 315° |
| 2026-05-01 13:10 | 49.34427 | -2.35157 | 40209 ft | 474 kts | 315° |
| 2026-05-01 13:10 | 49.39297 | -2.41983 | 40211 ft | 475 kts | 315° |
| 2026-05-01 13:11 | 49.44168 | -2.48831 | 40212 ft | 475 kts | 315° |
| 2026-05-01 13:11 | 49.49011 | -2.55659 | 40211 ft | 475 kts | 315° |
| 2026-05-01 13:12 | 49.53879 | -2.62543 | 40209 ft | 476 kts | 315° |
| 2026-05-01 13:12 | 49.58747 | -2.69444 | 40223 ft | 476 kts | 315° |
| 2026-05-01 13:13 | 49.63620 | -2.76370 | 40215 ft | 477 kts | 314° |
| 2026-05-01 13:13 | 49.68494 | -2.83320 | 40222 ft | 477 kts | 314° |
| 2026-05-01 13:14 | 49.73367 | -2.90289 | 40221 ft | 478 kts | 314° |
| 2026-05-01 13:14 | 49.78244 | -2.97283 | 40220 ft | 478 kts | 314° |
| 2026-05-01 13:15 | 49.83423 | -3.03657 | 40221 ft | 481 kts | 324° |
| 2026-05-01 13:15 | 49.89291 | -3.08730 | 40218 ft | 484 kts | 331° |
| 2026-05-01 13:16 | 49.93962 | -3.12455 | 40212 ft | 483 kts | 329° |
| 2026-05-01 13:16 | 49.98329 | -3.17151 | 40211 ft | 479 kts | 316° |
| 2026-05-01 13:17 | 50.04487 | -3.29125 | 40207 ft | 472 kts | 297° |
| 2026-05-01 13:17 | 50.06444 | -3.33251 | 40202 ft | 477 kts | 309° |
| 2026-05-01 13:18 | 50.11609 | -3.39834 | 40203 ft | 483 kts | 322° |
| 2026-05-01 13:18 | 50.14363 | -3.42850 | 40205 ft | 483 kts | 322° |
| 2026-05-01 13:18 | 50.19792 | -3.49074 | 40201 ft | 484 kts | 320° |
| 2026-05-01 13:19 | 50.25100 | -3.55443 | 40206 ft | 484 kts | 319° |
| 2026-05-01 13:20 | 50.33078 | -3.65136 | 40202 ft | 485 kts | 319° |
| 2026-05-01 13:20 | 50.38426 | -3.71651 | 40193 ft | 486 kts | 319° |
| 2026-05-01 13:21 | 50.46428 | -3.81435 | 40195 ft | 487 kts | 319° |
| 2026-05-01 13:21 | 50.51763 | -3.87982 | 40196 ft | 487 kts | 319° |
| 2026-05-01 13:22 | 50.57095 | -3.94544 | 40194 ft | 487 kts | 319° |
| 2026-05-01 13:22 | 50.62424 | -4.01123 | 40190 ft | 487 kts | 319° |
| 2026-05-01 13:23 | 50.67764 | -4.07733 | 40188 ft | 487 kts | 319° |
| 2026-05-01 13:23 | 50.73093 | -4.14350 | 40194 ft | 488 kts | 319° |
| 2026-05-01 13:24 | 50.78418 | -4.20981 | 40197 ft | 487 kts | 319° |
| 2026-05-01 13:25 | 50.86407 | -4.30969 | 40191 ft | 488 kts | 319° |
| 2026-05-01 13:25 | 50.91706 | -4.37619 | 40196 ft | 489 kts | 319° |
| 2026-05-01 13:26 | 50.97035 | -4.44326 | 40197 ft | 489 kts | 318° |
| 2026-05-01 13:26 | 51.02358 | -4.51044 | 40194 ft | 489 kts | 318° |
| 2026-05-01 13:27 | 51.07677 | -4.57779 | 40196 ft | 489 kts | 318° |
| 2026-05-01 13:27 | 51.15642 | -4.67903 | 40195 ft | 488 kts | 318° |
| 2026-05-01 13:28 | 51.22700 | -4.76912 | 40205 ft | 488 kts | 318° |
| 2026-05-01 13:29 | 51.33322 | -4.90539 | 40199 ft | 489 kts | 318° |
| 2026-05-01 13:31 | 51.48315 | -5.12295 | 40180 ft | 480 kts | 298° |
| 2026-05-01 13:31 | 51.51757 | -5.27019 | 40180 ft | 466 kts | 274° |
| 2026-05-01 13:32 | 51.52800 | -5.37318 | 40183 ft | 467 kts | 275° |
| 2026-05-01 13:33 | 51.55435 | -5.63060 | 39583 ft | 464 kts | 275° |
| 2026-05-01 13:34 | 51.56466 | -5.73401 | 36795 ft | 478 kts | 274° |
| 2026-05-01 13:34 | 51.57521 | -5.84081 | 34105 ft | 496 kts | 273° |
| 2026-05-01 13:35 | 51.57691 | -5.85823 | 33715 ft | 502 kts | 273° |
| 2026-05-01 13:35 | 51.58234 | -5.91378 | 32566 ft | 505 kts | 273° |
| 2026-05-01 13:35 | 51.59323 | -6.02492 | 30768 ft | 496 kts | 273° |
| 2026-05-01 13:36 | 51.59853 | -6.07932 | 29923 ft | 489 kts | 273° |
| 2026-05-01 13:36 | 51.60370 | -6.13299 | 29233 ft | 479 kts | 273° |
| 2026-05-01 13:36 | 51.61362 | -6.23684 | 27946 ft | 461 kts | 273° |
| 2026-05-01 13:37 | 51.61834 | -6.28691 | 27337 ft | 454 kts | 272° |
| 2026-05-01 13:37 | 51.62304 | -6.33693 | 26581 ft | 450 kts | 272° |
| 2026-05-01 13:37 | 51.62766 | -6.38633 | 26003 ft | 443 kts | 272° |
| 2026-05-01 13:37 | 51.63219 | -6.43496 | 25369 ft | 437 kts | 272° |
| 2026-05-01 13:38 | 51.64101 | -6.53053 | 24090 ft | 426 kts | 272° |
| 2026-05-01 13:38 | 51.64532 | -6.57751 | 23443 ft | 421 kts | 272° |
| 2026-05-01 13:38 | 51.64956 | -6.62376 | 22825 ft | 413 kts | 272° |
| 2026-05-01 13:39 | 51.65371 | -6.66911 | 22224 ft | 406 kts | 272° |
| 2026-05-01 13:39 | 51.65776 | -6.71365 | 21626 ft | 398 kts | 272° |
| 2026-05-01 13:39 | 51.66172 | -6.75743 | 21043 ft | 391 kts | 272° |
| 2026-05-01 13:39 | 51.66560 | -6.80050 | 20430 ft | 385 kts | 272° |
| 2026-05-01 13:40 | 51.66939 | -6.84295 | 19877 ft | 378 kts | 272° |
| 2026-05-01 13:40 | 51.67309 | -6.88449 | 19310 ft | 372 kts | 272° |
| 2026-05-01 13:40 | 51.67672 | -6.92536 | 18770 ft | 366 kts | 272° |
| 2026-05-01 13:40 | 51.68028 | -6.96575 | 18162 ft | 361 kts | 272° |
| 2026-05-01 13:41 | 51.68378 | -7.00565 | 17617 ft | 366 kts | 272° |
| 2026-05-01 13:41 | 51.68731 | -7.04749 | 17037 ft | 393 kts | 272° |
| 2026-05-01 13:41 | 51.69109 | -7.09158 | 16425 ft | 400 kts | 273° |
| 2026-05-01 13:41 | 51.69499 | -7.13606 | 15808 ft | 398 kts | 273° |
| 2026-05-01 13:42 | 51.69886 | -7.17993 | 15193 ft | 391 kts | 273° |
| 2026-05-01 13:42 | 51.70261 | -7.22264 | 14598 ft | 380 kts | 273° |
| 2026-05-01 13:42 | 51.70623 | -7.26430 | 14012 ft | 369 kts | 273° |
| 2026-05-01 13:42 | 51.70972 | -7.30470 | 13370 ft | 358 kts | 272° |
| 2026-05-01 13:43 | 51.71307 | -7.34373 | 12867 ft | 346 kts | 272° |
| 2026-05-01 13:43 | 51.71628 | -7.38162 | 12334 ft | 336 kts | 272° |
| 2026-05-01 13:43 | 51.71938 | -7.41839 | 11820 ft | 327 kts | 272° |
| 2026-05-01 13:43 | 51.72240 | -7.45440 | 11328 ft | 329 kts | 272° |
| 2026-05-01 13:44 | 51.72548 | -7.49287 | 10782 ft | 358 kts | 272° |
| 2026-05-01 13:44 | 51.72876 | -7.53282 | 10549 ft | 355 kts | 273° |
| 2026-05-01 13:44 | 51.73206 | -7.57155 | 10416 ft | 341 kts | 273° |
| 2026-05-01 13:44 | 51.73520 | -7.60833 | 10246 ft | 322 kts | 273° |
| 2026-05-01 13:45 | 51.73814 | -7.64301 | 10072 ft | 302 kts | 272° |
| 2026-05-01 13:45 | 51.74087 | -7.67563 | 9725 ft | 287 kts | 272° |
| 2026-05-01 13:45 | 51.74342 | -7.70726 | 9178 ft | 281 kts | 272° |
| 2026-05-01 13:45 | 51.74588 | -7.73799 | 8940 ft | 276 kts | 272° |
| 2026-05-01 13:46 | 51.74834 | -7.76894 | 8809 ft | 278 kts | 272° |
| 2026-05-01 13:46 | 51.75084 | -7.79981 | 8510 ft | 276 kts | 272° |
| 2026-05-01 13:46 | 51.75354 | -7.83006 | 8167 ft | 268 kts | 277° |
| 2026-05-01 13:46 | 51.75904 | -7.85825 | 7849 ft | 259 kts | 288° |
| 2026-05-01 13:47 | 51.76587 | -7.88443 | 7538 ft | 249 kts | 288° |
| 2026-05-01 13:47 | 51.77281 | -7.91185 | 7214 ft | 284 kts | 288° |
| 2026-05-01 13:47 | 51.78035 | -7.94205 | 7065 ft | 285 kts | 288° |
| 2026-05-01 13:47 | 51.78918 | -7.96958 | 6998 ft | 275 kts | 302° |
| 2026-05-01 13:48 | 51.80223 | -7.99268 | 6965 ft | 281 kts | 310° |
| 2026-05-01 13:48 | 51.81622 | -8.01460 | 6868 ft | 279 kts | 315° |
| 2026-05-01 13:48 | 51.83113 | -8.03446 | 6520 ft | 276 kts | 317° |
| 2026-05-01 13:48 | 51.84592 | -8.05402 | 5981 ft | 273 kts | 317° |
| 2026-05-01 13:49 | 51.86154 | -8.07171 | 5281 ft | 275 kts | 325° |
| 2026-05-01 13:49 | 51.87786 | -8.08755 | 4683 ft | 271 kts | 326° |
| 2026-05-01 13:49 | 51.89405 | -8.10331 | 3933 ft | 272 kts | 326° |
| 2026-05-01 13:49 | 51.91008 | -8.11894 | 3281 ft | 269 kts | 326° |
| 2026-05-01 13:50 | 51.92598 | -8.13451 | 2707 ft | 267 kts | 326° |
| 2026-05-01 13:50 | 51.94180 | -8.14999 | 2197 ft | 265 kts | 326° |
| 2026-05-01 13:50 | 51.95729 | -8.16536 | 1805 ft | 256 kts | 326° |
| 2026-05-01 13:50 | 51.97275 | -8.18097 | 1717 ft | 267 kts | 322° |
| 2026-05-01 13:51 | 51.98736 | -8.19921 | 1602 ft | 264 kts | 318° |
| 2026-05-01 13:51 | 52.00085 | -8.21819 | 1499 ft | 249 kts | 312° |
| 2026-05-01 13:51 | 52.01170 | -8.23885 | 1501 ft | 234 kts | 297° |
| 2026-05-01 13:51 | 52.01935 | -8.26179 | 1492 ft | 230 kts | 294° |
| 2026-05-01 13:52 | 52.02641 | -8.28527 | 1495 ft | 231 kts | 284° |
| 2026-05-01 13:52 | 52.03222 | -8.30891 | 1487 ft | 220 kts | 287° |
| 2026-05-01 13:52 | 52.03480 | -8.33243 | 1497 ft | 211 kts | 260° |
| 2026-05-01 13:52 | 52.02965 | -8.35380 | 1494 ft | 198 kts | 228° |
| 2026-05-01 13:53 | 52.02050 | -8.37016 | 1492 ft | 197 kts | 222° |
| 2026-05-01 13:53 | 52.00208 | -8.40279 | 1491 ft | 197 kts | 225° |
| 2026-05-01 13:53 | 51.99318 | -8.41944 | 1490 ft | 199 kts | 225° |
| 2026-05-01 13:54 | 51.98410 | -8.43654 | 1489 ft | 200 kts | 226° |
| 2026-05-01 13:54 | 51.97516 | -8.45354 | 1498 ft | 196 kts | 226° |
| 2026-05-01 13:54 | 51.96639 | -8.47036 | 1501 ft | 197 kts | 226° |
| 2026-05-01 13:54 | 51.95733 | -8.48756 | 1497 ft | 201 kts | 226° |
| 2026-05-01 13:55 | 51.94866 | -8.50406 | 1492 ft | 184 kts | 225° |
| 2026-05-01 13:55 | 51.94075 | -8.51920 | 1501 ft | 169 kts | 225° |
| 2026-05-01 13:55 | 51.93311 | -8.53257 | 1502 ft | 155 kts | 216° |
| 2026-05-01 13:55 | 51.92325 | -8.53867 | 1483 ft | 149 kts | 182° |
| 2026-05-01 13:56 | 51.91395 | -8.53479 | 1486 ft | 130 kts | 158° |
| 2026-05-01 13:56 | 51.90629 | -8.52913 | 1510 ft | 119 kts | 160° |
| 2026-05-01 13:56 | 51.89787 | -8.52345 | 1311 ft | 139 kts | 161° |
| 2026-05-01 13:56 | 51.88912 | -8.51861 | 1056 ft | 127 kts | 167° |
| 2026-05-01 13:57 | 51.88057 | -8.51489 | 964 ft | 128 kts | 164° |
| 2026-05-01 13:57 | 51.87501 | -8.51150 | 958 ft | 130 kts | 159° |
| 2026-05-01 13:57 | 51.86382 | -8.50459 | 833 ft | 125 kts | 161° |
| 2026-05-01 13:57 | 51.85626 | -8.50003 | 633 ft | 113 kts | 160° |
| 2026-05-01 13:58 | 51.84829 | -8.49517 | 523 ft | 125 kts | 160° |
| 2026-05-01 13:58 | 51.84125 | -8.49108 | 480 ft | 72 kts | 160° |
| 2026-05-01 13:58 | 51.83762 | -8.48894 | 472 ft | 52 kts | 160° |
| 2026-05-01 13:58 | 51.83443 | -8.48705 | 471 ft | 42 kts | 159° |
| 2026-05-01 13:59 | 51.83315 | -8.48590 | 471 ft | 9 kts | 130° |
| 2026-05-01 13:59 | 51.83278 | -8.48537 | 474 ft | 6 kts | 170° |
| 2026-05-01 13:59 | 51.83263 | -8.48571 | 472 ft | 2 kts | 251° |
| 2026-05-01 13:59 | 51.83272 | -8.48595 | 473 ft | 2 kts | 303° |
| 2026-05-01 14:00 | 51.83295 | -8.48623 | 469 ft | 5 kts | 325° |
| 2026-05-01 14:00 | 51.83341 | -8.48642 | 473 ft | 9 kts | 343° |
| 2026-05-01 14:00 | 51.83411 | -8.48682 | 470 ft | 12 kts | 340° |
| 2026-05-01 14:00 | 51.83500 | -8.48733 | 471 ft | 15 kts | 340° |
| 2026-05-01 14:01 | 51.83605 | -8.48795 | 469 ft | 18 kts | 340° |
| 2026-05-01 14:01 | 51.83734 | -8.48871 | 470 ft | 21 kts | 340° |
| 2026-05-01 14:01 | 51.83877 | -8.48955 | 472 ft | 22 kts | 340° |
| 2026-05-01 14:01 | 51.84024 | -8.49045 | 472 ft | 23 kts | 339° |
| 2026-05-01 14:02 | 51.84170 | -8.49134 | 479 ft | 22 kts | 339° |
| 2026-05-01 14:02 | 51.84312 | -8.49220 | 484 ft | 21 kts | 340° |
| 2026-05-01 14:02 | 51.84455 | -8.49302 | 486 ft | 22 kts | 340° |
| 2026-05-01 14:02 | 51.84600 | -8.49385 | 488 ft | 22 kts | 340° |
| 2026-05-01 14:03 | 51.84729 | -8.49457 | 495 ft | 13 kts | 348° |
| 2026-05-01 14:03 | 51.84788 | -8.49370 | 500 ft | 11 kts | 67° |
| 2026-05-01 14:03 | 51.84810 | -8.49275 | 505 ft | 7 kts | 69° |
| 2026-05-01 14:03 | 51.84828 | -8.49237 | 508 ft | 2 kts | 45° |
| 2026-05-01 14:04 | 51.84831 | -8.49231 | 508 ft | 0 kts | 45° |
| 2026-05-01 14:04 | 51.84839 | -8.49223 | 508 ft | 3 kts | 35° |
| 2026-05-01 14:05 | 51.84890 | -8.49247 | 508 ft | 10 kts | 340° |
| 2026-05-01 14:05 | 51.84922 | -8.49206 | 509 ft | 5 kts | 76° |
| 2026-05-01 14:05 | 51.84929 | -8.49160 | 509 ft | 1 kts | 75° |
| 2026-05-01 14:05 | 51.84932 | -8.49142 | 509 ft | 3 kts | 74° |
| 2026-05-01 14:06 | 51.84942 | -8.49101 | 509 ft | 0 kts | 70° |